Time;durP1;ratioP1;P1;durP2;ratioP2;P2;SDS_P1;SDS_P2;PMS_P1;PMS_P2;Temp;Humidity;BMP_temperature;BMP_pressure;BME280_temperature;BME280_humidity;BME280_pressure;Samples;Min_cycle;Max_cycle;Signal;HPM_P1;HPM_P2
2021/01/25 00:00:36;;;;;;;16.63;9.07;;;3.80;99.90;;;;;;5053841;28;20048;-79
2021/01/25 00:03:01;;;;;;;16.52;8.45;;;3.90;99.90;;;;;;5049486;28;20453;-79
2021/01/25 00:05:27;;;;;;;14.85;7.70;;;3.80;99.90;;;;;;5066323;28;20170;-79
2021/01/25 00:07:53;;;;;;;14.65;8.05;;;3.80;99.90;;;;;;5061857;28;20538;-79
2021/01/25 00:10:18;;;;;;;13.60;7.07;;;3.80;99.90;;;;;;5061807;28;20033;-79
2021/01/25 00:12:44;;;;;;;14.35;7.35;;;3.70;99.90;;;;;;5056201;28;20644;-79
2021/01/25 00:15:10;;;;;;;14.85;7.60;;;3.70;99.90;;;;;;5065291;28;20024;-79
2021/01/25 00:17:35;;;;;;;14.45;7.82;;;3.70;99.90;;;;;;5052678;28;20040;-79
2021/01/25 00:20:01;;;;;;;14.70;7.60;;;3.60;99.90;;;;;;5057185;28;20028;-79
2021/01/25 00:22:27;;;;;;;16.45;7.93;;;3.60;99.90;;;;;;5062374;28;20029;-79
2021/01/25 00:24:53;;;;;;;16.48;8.07;;;3.60;99.90;;;;;;5049170;28;20116;-79
2021/01/25 00:27:19;;;;;;;16.35;8.30;;;3.60;99.90;;;;;;5051044;28;20158;-79
2021/01/25 00:29:44;;;;;;;15.75;7.82;;;3.70;99.90;;;;;;5063249;28;20123;-79
2021/01/25 00:32:10;;;;;;;16.85;8.57;;;3.70;99.90;;;;;;5056835;28;20154;-79
2021/01/25 00:34:37;;;;;;;17.23;8.07;;;3.80;99.90;;;;;;5052209;28;20025;-79
2021/01/25 00:37:02;;;;;;;19.90;8.52;;;3.70;99.90;;;;;;5051971;28;20044;-79
2021/01/25 00:39:28;;;;;;;15.95;7.88;;;3.80;99.90;;;;;;5058574;28;20025;-79
2021/01/25 00:41:53;;;;;;;16.58;7.78;;;3.90;99.90;;;;;;5059141;28;20024;-80
2021/01/25 00:44:19;;;;;;;17.90;8.30;;;3.80;99.90;;;;;;5056102;28;20025;-79
2021/01/25 00:46:44;;;;;;;17.58;8.55;;;3.80;99.90;;;;;;5056573;28;20380;-79
2021/01/25 00:49:10;;;;;;;16.45;7.95;;;3.80;99.90;;;;;;5059274;28;20029;-79
2021/01/25 00:51:35;;;;;;;14.27;7.30;;;3.80;99.90;;;;;;5057330;28;20025;-79
2021/01/25 00:54:01;;;;;;;14.02;7.57;;;3.70;99.90;;;;;;5060996;28;20498;-79
2021/01/25 00:56:26;;;;;;;15.65;7.13;;;3.80;99.90;;;;;;5058269;28;20130;-79
2021/01/25 00:58:52;;;;;;;16.83;8.55;;;3.70;99.90;;;;;;5057914;28;20021;-79
2021/01/25 01:01:17;;;;;;;14.48;7.03;;;3.70;99.90;;;;;;5057488;28;20033;-79
2021/01/25 01:03:43;;;;;;;12.38;6.95;;;3.70;99.90;;;;;;5058005;28;20036;-79
2021/01/25 01:06:08;;;;;;;15.95;7.55;;;3.70;99.90;;;;;;5054204;28;20020;-79
2021/01/25 01:08:34;;;;;;;12.60;6.47;;;3.70;99.90;;;;;;5062989;28;20484;-79
2021/01/25 01:10:59;;;;;;;12.90;6.72;;;3.70;99.90;;;;;;5055088;28;20067;-79
2021/01/25 01:13:25;;;;;;;14.32;6.75;;;3.70;99.90;;;;;;5056788;28;20092;-79
2021/01/25 01:15:51;;;;;;;11.68;6.40;;;3.70;99.90;;;;;;5063664;28;20029;-79
2021/01/25 01:18:16;;;;;;;11.65;6.72;;;3.70;99.90;;;;;;5063351;28;20453;-79
2021/01/25 01:23:17;;;;;;;12.75;6.85;;;3.70;99.90;;;;;;5869899;23;20055;-79
2021/01/25 01:25:43;;;;;;;14.65;7.05;;;3.70;99.90;;;;;;4959224;28;20030;-79
2021/01/25 01:28:14;;;;;;;16.90;7.45;;;3.60;99.90;;;;;;4962904;28;20137;-80
2021/01/25 01:30:40;;;;;;;13.85;7.47;;;3.60;99.90;;;;;;4956074;28;20043;-79
2021/01/25 01:33:05;;;;;;;16.73;8.52;;;3.60;99.90;;;;;;4961842;28;20027;-80
2021/01/25 01:35:31;;;;;;;16.15;7.68;;;3.70;99.90;;;;;;4967553;28;20110;-79
2021/01/25 01:37:56;;;;;;;18.15;8.75;;;3.70;99.90;;;;;;4967360;28;20033;-79
2021/01/25 01:40:22;;;;;;;15.45;8.55;;;3.70;99.90;;;;;;4965004;28;20048;-79
2021/01/25 01:42:47;;;;;;;16.25;8.50;;;3.70;99.90;;;;;;4959047;28;20027;-79
2021/01/25 01:45:13;;;;;;;21.00;9.15;;;3.70;99.90;;;;;;4961790;28;20046;-79
2021/01/25 01:47:42;;;;;;;20.08;9.48;;;3.70;99.90;;;;;;4970352;28;20035;-80
2021/01/25 01:50:08;;;;;;;17.13;9.07;;;3.70;99.90;;;;;;4970174;28;20489;-79
2021/01/25 01:52:34;;;;;;;20.05;10.05;;;3.70;99.90;;;;;;4971071;28;20023;-79
2021/01/25 01:55:01;;;;;;;18.85;9.40;;;3.70;99.90;;;;;;4968196;28;22375;-79
2021/01/25 01:57:28;;;;;;;18.98;9.88;;;3.70;99.90;;;;;;4971073;28;20023;-79
2021/01/25 01:59:54;;;;;;;18.98;9.30;;;3.60;99.90;;;;;;4967076;28;20046;-80
2021/01/25 02:02:20;;;;;;;18.42;9.48;;;3.70;99.90;;;;;;4968576;28;20195;-79
2021/01/25 02:04:46;;;;;;;19.05;9.82;;;3.70;99.90;;;;;;4968418;28;20755;-79
2021/01/25 02:07:12;;;;;;;17.50;9.55;;;3.70;99.90;;;;;;4963311;28;20077;-80
2021/01/25 02:09:40;;;;;;;21.00;10.23;;;3.60;99.90;;;;;;4969683;28;20027;-79
2021/01/25 02:12:09;;;;;;;17.10;9.68;;;3.50;99.90;;;;;;4969861;28;20109;-80
2021/01/25 02:14:36;;;;;;;20.48;9.20;;;3.50;99.90;;;;;;4967214;28;20018;-79
2021/01/25 02:17:02;;;;;;;19.48;10.80;;;3.50;99.90;;;;;;4961206;28;20460;-80
2021/01/25 02:19:54;;;;;;;19.50;10.20;;;3.40;99.90;;;;;;4967209;28;20048;-79
2021/01/25 02:22:35;;;;;;;20.75;11.00;;;3.40;99.90;;;;;;4970520;28;20672;-79
2021/01/25 02:25:14;;;;;;;21.50;10.13;;;3.20;99.90;;;;;;4967185;28;20125;-79
2021/01/25 02:27:43;;;;;;;19.58;9.95;;;3.10;99.90;;;;;;4962725;28;20282;-79
2021/01/25 02:30:11;;;;;;;19.73;10.68;;;3.00;99.90;;;;;;4965961;28;20090;-79
2021/01/25 02:32:37;;;;;;;20.30;10.75;;;3.00;99.90;;;;;;4969907;28;20054;-79
2021/01/25 02:35:07;;;;;;;19.45;10.45;;;3.20;99.90;;;;;;4967156;28;20122;-79
2021/01/25 02:37:34;;;;;;;18.90;10.43;;;3.20;99.90;;;;;;4968978;28;20035;-79
2021/01/25 02:40:00;;;;;;;19.25;10.25;;;3.30;99.90;;;;;;4971315;28;20689;-78
2021/01/25 02:42:26;;;;;;;19.88;10.82;;;3.20;99.90;;;;;;4966276;28;20031;-79
2021/01/25 02:44:53;;;;;;;19.33;10.88;;;3.20;99.90;;;;;;4967670;28;20561;-79
2021/01/25 02:47:20;;;;;;;21.33;11.30;;;3.20;99.90;;;;;;4969166;28;20046;-79
2021/01/25 02:49:46;;;;;;;23.27;11.02;;;3.20;99.90;;;;;;4968962;28;20054;-81
2021/01/25 02:52:14;;;;;;;23.05;11.98;;;3.30;99.90;;;;;;4969863;28;20034;-81
2021/01/25 02:54:40;;;;;;;23.60;11.25;;;3.30;99.90;;;;;;4966633;28;20058;-81
2021/01/25 02:57:10;;;;;;;22.13;10.48;;;3.20;99.90;;;;;;4964768;28;20022;-81
2021/01/25 02:59:38;;;;;;;21.60;11.00;;;3.20;99.90;;;;;;4967300;28;20019;-81
2021/01/25 03:02:05;;;;;;;22.63;10.93;;;3.30;99.90;;;;;;4984697;28;20037;-81
2021/01/25 03:04:33;;;;;;;21.88;11.82;;;3.20;99.90;;;;;;4969198;28;20050;-81
2021/01/25 03:06:59;;;;;;;18.50;10.48;;;3.30;99.90;;;;;;4963618;28;20061;-81
2021/01/25 03:09:25;;;;;;;22.60;11.25;;;3.10;99.90;;;;;;4962334;28;20698;-81
2021/01/25 03:11:51;;;;;;;19.38;10.43;;;3.20;99.90;;;;;;4967467;28;20038;-81
2021/01/25 03:14:17;;;;;;;22.90;10.43;;;3.20;99.90;;;;;;4965455;28;20063;-81
2021/01/25 03:16:42;;;;;;;18.33;9.20;;;3.30;99.90;;;;;;4958447;28;20448;-81
2021/01/25 03:19:07;;;;;;;19.10;9.35;;;3.10;99.90;;;;;;4968174;28;20099;-80
2021/01/25 03:21:33;;;;;;;16.67;8.63;;;3.10;99.90;;;;;;4968537;28;20019;-80
2021/01/25 03:23:59;;;;;;;16.15;8.30;;;3.10;99.90;;;;;;4968888;28;20582;-81
2021/01/25 03:26:25;;;;;;;15.82;8.43;;;3.20;99.90;;;;;;4962037;28;20555;-81
2021/01/25 03:28:51;;;;;;;15.35;8.65;;;3.20;99.90;;;;;;4957929;28;20089;-80
2021/01/25 03:31:17;;;;;;;17.27;9.00;;;3.20;99.90;;;;;;4963052;28;20086;-81
2021/01/25 03:33:42;;;;;;;17.83;9.00;;;3.20;99.90;;;;;;4963510;28;20035;-81
2021/01/25 03:36:08;;;;;;;17.92;8.85;;;3.20;99.90;;;;;;4966330;28;20023;-81
2021/01/25 03:38:33;;;;;;;17.30;8.45;;;3.30;99.90;;;;;;4963996;28;20023;-81
2021/01/25 03:40:59;;;;;;;16.77;9.30;;;3.30;99.90;;;;;;4967619;28;20034;-81
2021/01/25 03:43:24;;;;;;;19.60;8.85;;;3.30;99.90;;;;;;4961936;28;20030;-81
2021/01/25 03:45:50;;;;;;;16.48;9.13;;;3.30;99.90;;;;;;4966864;28;20019;-80
2021/01/25 03:48:16;;;;;;;15.57;8.70;;;3.30;99.90;;;;;;4967648;28;20693;-81
2021/01/25 03:50:41;;;;;;;17.02;8.85;;;3.40;99.90;;;;;;4964621;28;20039;-81
2021/01/25 03:53:06;;;;;;;19.25;8.52;;;3.40;99.90;;;;;;4958164;28;20041;-81
2021/01/25 03:55:32;;;;;;;17.17;9.68;;;3.30;99.90;;;;;;4964567;28;20422;-81
2021/01/25 03:57:57;;;;;;;18.90;9.38;;;3.30;99.90;;;;;;4967948;28;20031;-81
2021/01/25 04:00:23;;;;;;;18.05;9.38;;;3.30;99.90;;;;;;4961282;28;20386;-81
2021/01/25 04:02:49;;;;;;;19.40;9.82;;;3.30;99.90;;;;;;4962117;28;20064;-82
2021/01/25 04:05:14;;;;;;;18.25;9.45;;;3.30;99.90;;;;;;4961735;28;20045;-81
2021/01/25 04:07:40;;;;;;;19.10;9.85;;;3.30;99.90;;;;;;4964705;28;20034;-81
2021/01/25 04:10:07;;;;;;;19.15;9.98;;;3.30;99.90;;;;;;4966593;28;20058;-81
2021/01/25 04:12:32;;;;;;;16.55;9.50;;;3.30;99.90;;;;;;4962094;28;20448;-81
2021/01/25 04:14:58;;;;;;;23.58;10.02;;;3.30;99.90;;;;;;4966863;28;20039;-81
2021/01/25 04:17:23;;;;;;;18.83;9.70;;;3.30;99.90;;;;;;4966348;28;20019;-81
2021/01/25 04:19:49;;;;;;;16.50;9.52;;;3.20;99.90;;;;;;4964075;28;20030;-81
2021/01/25 04:22:15;;;;;;;18.90;9.18;;;3.30;99.90;;;;;;4964772;28;20089;-81
2021/01/25 04:24:40;;;;;;;19.02;9.40;;;3.30;99.90;;;;;;4966477;28;20038;-81
2021/01/25 04:27:10;;;;;;;16.83;9.07;;;3.30;99.90;;;;;;4966050;28;20035;-81
2021/01/25 04:29:37;;;;;;;18.83;9.82;;;3.40;99.90;;;;;;4964516;28;20473;-81
2021/01/25 04:32:03;;;;;;;18.63;9.48;;;3.40;99.90;;;;;;4961419;28;20473;-81
2021/01/25 04:34:28;;;;;;;19.30;9.10;;;3.30;99.90;;;;;;4959436;28;20027;-81
2021/01/25 04:36:54;;;;;;;17.80;9.48;;;3.30;99.90;;;;;;4962136;28;20022;-81
2021/01/25 04:39:19;;;;;;;23.25;10.60;;;3.30;99.90;;;;;;4962712;28;20025;-81
2021/01/25 04:41:45;;;;;;;17.70;9.80;;;3.30;99.90;;;;;;4966369;28;20026;-81
2021/01/25 04:44:11;;;;;;;17.80;9.20;;;3.30;99.90;;;;;;4958654;28;20027;-81
2021/01/25 04:46:37;;;;;;;20.23;9.85;;;3.30;99.90;;;;;;4965159;28;20073;-81
2021/01/25 04:49:04;;;;;;;18.23;9.48;;;3.40;99.90;;;;;;4962879;28;20073;-81
2021/01/25 04:51:30;;;;;;;17.92;9.20;;;3.40;99.90;;;;;;4965362;28;20034;-81
2021/01/25 04:53:57;;;;;;;18.60;8.95;;;3.30;99.90;;;;;;4966912;28;20089;-81
2021/01/25 04:56:24;;;;;;;19.17;9.30;;;3.40;99.90;;;;;;4965790;28;20047;-81
2021/01/25 04:58:50;;;;;;;16.55;9.07;;;3.30;99.90;;;;;;4965201;28;20022;-81
2021/01/25 05:01:15;;;;;;;18.13;9.75;;;3.30;99.90;;;;;;4960062;28;20046;-82
2021/01/25 05:03:41;;;;;;;19.73;10.57;;;3.40;99.90;;;;;;4964326;28;20169;-81
2021/01/25 05:06:07;;;;;;;20.35;10.13;;;3.50;99.90;;;;;;4964403;28;20022;-81
2021/01/25 05:08:32;;;;;;;17.42;9.93;;;3.50;99.90;;;;;;4961463;28;20031;-81
2021/01/25 05:10:58;;;;;;;20.27;9.95;;;3.50;99.90;;;;;;4957992;28;20496;-81
2021/01/25 05:13:24;;;;;;;23.52;10.70;;;3.50;99.90;;;;;;4966927;28;20039;-81
2021/01/25 05:15:51;;;;;;;21.38;10.48;;;3.40;99.90;;;;;;4965412;28;20038;-81
2021/01/25 05:18:22;;;;;;;24.38;10.85;;;3.50;99.90;;;;;;4965928;28;20030;-81
2021/01/25 05:20:53;;;;;;;21.25;10.82;;;3.30;99.90;;;;;;4959495;28;20038;-81
2021/01/25 05:23:19;;;;;;;23.63;10.95;;;3.40;99.90;;;;;;4967208;28;20524;-81
2021/01/25 05:25:45;;;;;;;24.85;11.05;;;3.40;99.90;;;;;;4966228;28;20031;-81
2021/01/25 05:28:15;;;;;;;22.92;11.60;;;3.40;99.90;;;;;;4967143;28;20033;-81
2021/01/25 05:30:40;;;;;;;23.90;12.20;;;3.50;99.90;;;;;;4960558;28;20501;-81
2021/01/25 05:33:06;;;;;;;27.40;13.38;;;3.40;99.90;;;;;;4963723;28;20121;-81
2021/01/25 05:35:33;;;;;;;28.65;13.63;;;3.40;99.90;;;;;;4971223;28;20026;-81
2021/01/25 05:38:00;;;;;;;29.42;13.05;;;3.40;99.90;;;;;;4964949;28;20807;-81
2021/01/25 05:40:28;;;;;;;28.33;13.63;;;3.40;99.90;;;;;;4969815;28;20030;-80
2021/01/25 05:42:55;;;;;;;30.00;14.30;;;3.40;99.90;;;;;;4966113;28;20065;-81
2021/01/25 05:45:21;;;;;;;28.92;13.73;;;3.50;99.90;;;;;;4969719;28;20400;-81
2021/01/25 05:47:57;;;;;;;25.63;13.10;;;3.40;99.90;;;;;;4970142;28;20189;-80
2021/01/25 05:50:34;;;;;;;29.00;14.25;;;3.40;99.90;;;;;;4969651;28;20113;-81
2021/01/25 05:53:02;;;;;;;30.38;15.02;;;3.30;99.90;;;;;;4968521;28;20105;-81
2021/01/25 05:55:28;;;;;;;35.65;15.82;;;3.40;99.90;;;;;;4969517;28;20041;-81
2021/01/25 05:57:54;;;;;;;35.10;15.30;;;3.30;99.90;;;;;;4966570;28;20797;-81
2021/01/25 06:00:21;;;;;;;35.75;14.77;;;3.40;99.90;;;;;;4962610;28;20547;-80
2021/01/25 06:02:48;;;;;;;29.08;15.73;;;3.40;99.90;;;;;;4966884;28;20023;-81
2021/01/25 06:05:19;;;;;;;32.90;14.45;;;3.40;99.90;;;;;;4963918;28;20060;-81
2021/01/25 06:07:48;;;;;;;29.00;14.05;;;3.40;99.90;;;;;;4969298;28;20089;-81
2021/01/25 06:10:24;;;;;;;34.85;16.15;;;3.40;99.90;;;;;;4967796;28;20034;-81
2021/01/25 06:12:57;;;;;;;30.60;14.55;;;3.40;99.90;;;;;;4959807;28;20031;-81
2021/01/25 06:15:28;;;;;;;31.80;15.43;;;3.40;99.90;;;;;;4966762;28;20045;-81
2021/01/25 06:17:56;;;;;;;30.42;14.20;;;3.50;99.90;;;;;;4969727;28;20018;-81
2021/01/25 06:20:24;;;;;;;30.30;16.00;;;3.40;99.90;;;;;;4969002;28;20023;-80
2021/01/25 06:22:49;;;;;;;31.08;15.73;;;3.40;99.90;;;;;;4970767;28;20023;-81
2021/01/25 06:25:15;;;;;;;30.48;13.95;;;3.40;99.90;;;;;;4969016;28;20042;-81
2021/01/25 06:27:45;;;;;;;30.98;15.13;;;3.30;99.90;;;;;;4965138;28;20043;-81
2021/01/25 06:30:12;;;;;;;32.55;15.82;;;3.40;99.90;;;;;;4967630;28;20054;-81
2021/01/25 06:32:40;;;;;;;34.17;15.98;;;3.40;99.90;;;;;;4966006;28;20121;-81
2021/01/25 06:35:07;;;;;;;32.38;15.63;;;3.40;99.90;;;;;;4970912;28;20097;-81
2021/01/25 06:37:37;;;;;;;33.08;17.45;;;3.50;99.90;;;;;;4967372;28;20066;-81
2021/01/25 06:40:07;;;;;;;37.65;16.65;;;3.40;99.90;;;;;;4968360;28;20109;-81
2021/01/25 06:42:33;;;;;;;36.40;17.70;;;3.40;99.90;;;;;;4969094;28;20529;-81
2021/01/25 06:45:03;;;;;;;31.60;15.93;;;3.40;99.90;;;;;;4967728;28;20039;-81
2021/01/25 06:47:30;;;;;;;35.28;16.58;;;3.40;99.90;;;;;;4970308;28;20026;-81
2021/01/25 06:50:00;;;;;;;35.58;16.08;;;3.40;99.90;;;;;;4967504;28;20050;-81
2021/01/25 06:52:27;;;;;;;36.83;17.98;;;3.40;99.90;;;;;;4967113;28;20058;-81
2021/01/25 06:55:00;;;;;;;32.70;15.93;;;3.40;99.90;;;;;;4963627;28;20031;-81
2021/01/25 06:57:26;;;;;;;37.08;17.08;;;3.40;99.90;;;;;;4967730;28;20082;-81
2021/01/25 06:59:52;;;;;;;35.42;16.48;;;3.40;99.90;;;;;;4967855;28;20114;-80
2021/01/25 07:02:20;;;;;;;35.97;17.40;;;3.40;99.90;;;;;;4966472;28;20102;-81
2021/01/25 07:04:46;;;;;;;36.05;17.45;;;3.40;99.90;;;;;;4967238;28;20113;-81
2021/01/25 07:07:41;;;;;;;33.63;15.93;;;3.50;99.90;;;;;;4964947;28;20027;-81
2021/01/25 07:10:07;;;;;;;33.42;16.02;;;3.50;99.90;;;;;;4962779;28;20042;-81
2021/01/25 07:12:33;;;;;;;33.20;15.85;;;3.50;99.90;;;;;;4955064;28;20034;-80
2021/01/25 07:15:00;;;;;;;31.83;15.73;;;3.50;99.90;;;;;;4965158;28;20037;-81
2021/01/25 07:17:26;;;;;;;33.20;15.63;;;3.50;99.90;;;;;;4967369;28;20035;-81
2021/01/25 07:19:51;;;;;;;30.95;14.93;;;3.50;99.90;;;;;;4962389;28;20090;-78
2021/01/25 07:22:19;;;;;;;38.38;15.88;;;3.50;99.90;;;;;;4963095;28;20031;-76
2021/01/25 07:24:44;;;;;;;29.13;14.35;;;3.40;99.90;;;;;;4967018;28;20043;-76
2021/01/25 07:27:10;;;;;;;30.75;15.57;;;3.40;99.90;;;;;;4956501;28;20489;-75
2021/01/25 07:29:36;;;;;;;30.83;14.77;;;3.40;99.90;;;;;;4968917;28;20077;-76
2021/01/25 07:32:02;;;;;;;29.80;14.88;;;3.40;99.90;;;;;;4958356;28;20027;-77
2021/01/25 07:34:30;;;;;;;32.65;14.52;;;3.40;99.90;;;;;;4964513;28;20089;-79
2021/01/25 07:36:56;;;;;;;30.58;14.15;;;3.50;99.90;;;;;;4968655;28;20034;-79
2021/01/25 07:39:21;;;;;;;34.08;13.95;;;3.50;99.90;;;;;;4967430;28;20065;-78
2021/01/25 07:41:48;;;;;;;33.95;16.70;;;3.60;99.90;;;;;;4964491;28;20102;-79
2021/01/25 07:44:14;;;;;;;32.90;16.80;;;3.50;99.90;;;;;;4964282;28;20030;-82
2021/01/25 07:46:43;;;;;;;33.78;15.38;;;3.50;99.90;;;;;;4970083;28;20527;-84
2021/01/25 07:49:09;;;;;;;29.38;14.38;;;3.50;99.90;;;;;;4964589;28;20130;-82
2021/01/25 07:51:36;;;;;;;29.45;14.57;;;3.50;99.90;;;;;;4964678;28;20157;-81
2021/01/25 07:54:04;;;;;;;26.55;14.38;;;3.50;99.90;;;;;;4957078;28;20555;-80
2021/01/25 07:56:30;;;;;;;30.58;14.80;;;3.40;99.90;;;;;;4963743;28;20046;-80
2021/01/25 07:59:07;;;;;;;30.85;13.73;;;3.50;99.90;;;;;;4967036;28;20035;-80
2021/01/25 08:01:37;;;;;;;29.55;14.25;;;3.60;99.90;;;;;;4963377;28;20057;-81
2021/01/25 08:04:05;;;;;;;30.73;13.98;;;3.50;99.90;;;;;;4965640;28;20077;-80
2021/01/25 08:06:35;;;;;;;25.55;12.68;;;3.50;99.90;;;;;;4965959;28;20038;-80
2021/01/25 08:09:56;;;;;;;28.77;14.02;;;3.40;99.90;;;;;;4965111;28;20059;-82
2021/01/25 08:12:24;;;;;;;25.15;12.60;;;3.40;99.90;;;;;;4961712;28;20066;-81
2021/01/25 08:14:59;;;;;;;25.58;13.43;;;3.50;99.90;;;;;;4967713;28;20101;-82
2021/01/25 08:17:30;;;;;;;26.40;13.40;;;3.50;99.90;;;;;;4968352;28;20039;-82
2021/01/25 08:20:03;;;;;;;23.52;12.80;;;3.40;99.90;;;;;;4963786;28;20036;-81
2021/01/25 08:22:39;;;;;;;26.08;13.82;;;3.50;99.90;;;;;;4963449;28;20061;-88
2021/01/25 08:25:05;;;;;;;22.60;12.77;;;3.50;99.90;;;;;;4964564;28;20046;-83
2021/01/25 08:27:33;;;;;;;28.00;13.20;;;3.40;99.90;;;;;;4965987;28;20027;-88
2021/01/25 08:30:20;;;;;;;31.27;13.77;;;3.40;99.90;;;;;;4966449;28;20085;-79
2021/01/25 08:32:49;;;;;;;28.88;13.40;;;3.40;99.90;;;;;;4967483;28;20820;-82
2021/01/25 08:35:37;;;;;;;32.42;14.07;;;3.40;99.90;;;;;;4965680;28;20253;-81
2021/01/25 08:38:16;;;;;;;26.35;13.60;;;3.30;99.90;;;;;;4966147;28;20050;-81
2021/01/25 08:40:41;;;;;;;30.10;13.48;;;3.40;99.90;;;;;;4966892;28;20085;-81
2021/01/25 08:43:19;;;;;;;29.10;14.55;;;3.40;99.90;;;;;;4967019;28;20031;-82
2021/01/25 08:45:45;;;;;;;27.60;13.55;;;3.50;99.90;;;;;;4965654;28;20073;-82
2021/01/25 08:48:10;;;;;;;28.67;13.95;;;3.50;99.90;;;;;;4966296;28;20030;-81
2021/01/25 08:50:37;;;;;;;29.70;13.18;;;3.60;99.90;;;;;;4967425;28;20031;-81
2021/01/25 08:53:06;;;;;;;27.85;13.93;;;3.30;99.90;;;;;;4967617;28;20030;-81
2021/01/25 08:55:43;;;;;;;30.52;14.38;;;3.40;99.90;;;;;;4963638;28;20633;-81
2021/01/25 08:58:25;;;;;;;30.25;14.07;;;3.40;99.90;;;;;;4966407;28;20122;-81
2021/01/25 09:00:51;;;;;;;35.15;14.55;;;3.50;99.90;;;;;;4962780;28;20031;-82
2021/01/25 09:03:17;;;;;;;28.40;13.43;;;3.50;99.90;;;;;;4964053;28;20019;-79
2021/01/25 09:05:43;;;;;;;31.48;13.63;;;3.60;99.90;;;;;;4961320;28;20816;-76
2021/01/25 09:08:09;;;;;;;31.00;14.38;;;3.60;99.90;;;;;;4965029;28;20062;-77
2021/01/25 09:10:35;;;;;;;28.40;13.82;;;3.60;99.90;;;;;;4966729;28;20512;-81
2021/01/25 09:13:00;;;;;;;27.63;12.60;;;3.50;99.90;;;;;;4965608;28;20046;-78
2021/01/25 09:15:26;;;;;;;33.25;13.90;;;3.50;99.90;;;;;;4962661;28;20081;-78
2021/01/25 09:17:53;;;;;;;27.35;14.05;;;3.60;99.90;;;;;;4967504;28;20023;-81
2021/01/25 09:20:19;;;;;;;29.45;13.85;;;3.60;99.90;;;;;;4965668;28;20726;-76
2021/01/25 09:22:45;;;;;;;25.02;13.10;;;3.70;99.90;;;;;;4963977;28;20549;-79
2021/01/25 09:25:12;;;;;;;28.50;14.32;;;3.80;99.90;;;;;;4966632;28;20035;-77
2021/01/25 09:27:39;;;;;;;28.35;13.98;;;3.90;99.90;;;;;;4966544;28;20023;-80
2021/01/25 09:30:07;;;;;;;30.25;14.02;;;4.00;99.90;;;;;;4964974;28;20031;-79
2021/01/25 09:32:32;;;;;;;30.50;13.82;;;4.10;99.90;;;;;;4965568;28;20034;-82
2021/01/25 09:34:58;;;;;;;26.30;12.20;;;4.20;99.90;;;;;;4967479;28;20122;-80
2021/01/25 09:37:23;;;;;;;26.55;12.50;;;4.20;99.90;;;;;;4965990;28;20548;-79
2021/01/25 09:39:48;;;;;;;23.55;12.65;;;4.00;99.90;;;;;;4966306;28;20109;-79
2021/01/25 09:42:15;;;;;;;28.25;12.65;;;4.00;99.90;;;;;;4960104;28;20090;-83
2021/01/25 09:44:41;;;;;;;26.45;12.07;;;4.10;99.90;;;;;;4963713;28;20493;-82
2021/01/25 09:47:07;;;;;;;24.38;12.57;;;4.10;99.90;;;;;;4967551;28;20063;-75
2021/01/25 09:49:32;;;;;;;25.23;12.48;;;4.10;99.90;;;;;;4963098;28;20041;-81
2021/01/25 09:51:58;;;;;;;24.60;12.25;;;4.00;99.90;;;;;;4966404;28;20023;-76
2021/01/25 09:54:24;;;;;;;25.02;12.55;;;4.10;99.90;;;;;;4963537;28;20073;-78
2021/01/25 09:56:49;;;;;;;22.50;11.35;;;4.10;99.90;;;;;;4966167;28;20034;-83
2021/01/25 09:59:15;;;;;;;27.45;12.32;;;3.90;99.90;;;;;;4963966;28;20027;-78
2021/01/25 10:01:41;;;;;;;29.77;12.38;;;3.90;99.90;;;;;;4964443;28;20034;-76
2021/01/25 10:04:06;;;;;;;23.88;11.95;;;4.00;99.90;;;;;;4965321;28;20469;-80
2021/01/25 10:06:32;;;;;;;24.88;12.38;;;4.00;99.90;;;;;;4963942;28;20427;-79
2021/01/25 10:08:58;;;;;;;26.35;12.55;;;3.90;99.90;;;;;;4968027;28;20033;-79
2021/01/25 10:11:25;;;;;;;29.15;12.50;;;4.00;99.90;;;;;;4970747;28;20066;-80
2021/01/25 10:13:51;;;;;;;27.15;12.73;;;4.00;99.90;;;;;;4968012;28;20079;-79
2021/01/25 10:16:17;;;;;;;26.38;12.40;;;4.00;99.90;;;;;;4969226;28;20062;-77
2021/01/25 10:18:42;;;;;;;29.52;12.90;;;4.00;99.90;;;;;;4965824;28;20035;-80
2021/01/25 10:21:08;;;;;;;26.92;11.77;;;4.20;99.90;;;;;;4963836;28;20027;-80
2021/01/25 10:23:34;;;;;;;26.40;12.10;;;4.20;99.90;;;;;;4960123;28;20077;-80
2021/01/25 10:26:00;;;;;;;22.60;11.52;;;4.20;99.90;;;;;;4962101;28;20061;-83
2021/01/25 10:28:26;;;;;;;25.20;12.48;;;4.10;99.90;;;;;;4958497;28;20062;-78
2021/01/25 10:30:52;;;;;;;25.80;12.65;;;4.10;99.90;;;;;;4961819;28;20043;-81
2021/01/25 10:33:17;;;;;;;28.15;12.73;;;4.00;99.90;;;;;;4965975;28;20093;-76
2021/01/25 10:35:43;;;;;;;23.50;11.30;;;4.00;99.90;;;;;;4965029;28;20022;-80
2021/01/25 10:38:09;;;;;;;25.85;11.07;;;4.00;99.90;;;;;;4966809;28;20041;-81
2021/01/25 10:40:36;;;;;;;18.42;10.10;;;4.00;99.90;;;;;;4964054;28;20027;-80
2021/01/25 10:43:01;;;;;;;23.85;10.25;;;4.10;99.90;;;;;;4967786;28;20027;-78
2021/01/25 10:45:27;;;;;;;25.10;11.60;;;4.00;99.90;;;;;;4957219;28;20049;-76
2021/01/25 10:47:52;;;;;;;22.45;11.13;;;3.90;99.90;;;;;;4953260;28;20126;-76
2021/01/25 10:50:18;;;;;;;18.85;9.57;;;4.00;99.90;;;;;;4960486;28;20805;-77
2021/01/25 10:52:44;;;;;;;22.77;10.95;;;4.00;99.90;;;;;;4962417;28;20444;-77
2021/01/25 10:55:10;;;;;;;26.42;10.93;;;4.10;99.90;;;;;;4966888;28;20442;-77
2021/01/25 10:57:36;;;;;;;19.77;9.90;;;4.10;99.90;;;;;;4963293;28;20034;-77
2021/01/25 11:00:05;;;;;;;18.83;10.20;;;4.30;99.90;;;;;;4964145;28;20297;-77
2021/01/25 11:02:30;;;;;;;16.13;9.07;;;4.30;99.90;;;;;;4961382;28;20062;-77
2021/01/25 11:04:56;;;;;;;18.08;9.52;;;4.30;99.90;;;;;;4962536;28;20027;-77
2021/01/25 11:07:21;;;;;;;15.30;8.63;;;4.20;99.90;;;;;;4961405;28;20506;-76
2021/01/25 11:09:47;;;;;;;17.08;9.05;;;4.20;99.90;;;;;;4962705;28;20104;-76
2021/01/25 11:12:12;;;;;;;23.63;9.32;;;4.30;99.90;;;;;;4962716;28;20047;-76
2021/01/25 11:14:38;;;;;;;21.00;9.30;;;4.30;99.90;;;;;;4964477;28;20045;-77
2021/01/25 11:17:03;;;;;;;20.42;8.82;;;4.30;99.90;;;;;;4960483;28;20500;-75
2021/01/25 11:19:29;;;;;;;18.33;9.23;;;4.30;99.90;;;;;;4960915;28;20027;-76
2021/01/25 11:21:54;;;;;;;20.20;10.02;;;4.20;99.90;;;;;;4961447;28;20030;-76
2021/01/25 11:24:20;;;;;;;22.42;10.07;;;4.30;99.90;;;;;;4961311;28;20387;-77
2021/01/25 11:26:45;;;;;;;23.15;10.00;;;4.30;99.90;;;;;;4963269;28;20035;-79
2021/01/25 11:29:14;;;;;;;19.50;9.93;;;4.30;99.90;;;;;;4965406;28;20026;-74
2021/01/25 11:32:22;;;;;;;;;;;;;;;;;;;;;
2021/01/25 11:34:48;;;;;;;18.52;9.35;;;4.30;99.90;;;;;;4970420;28;20045;-75
2021/01/25 11:37:14;;;;;;;22.33;10.10;;;4.30;99.90;;;;;;4968326;28;20027;-74
2021/01/25 11:39:41;;;;;;;18.63;9.35;;;4.30;99.90;;;;;;4964314;28;20490;-76
2021/01/25 11:42:07;;;;;;;19.98;9.80;;;4.30;99.90;;;;;;4967007;28;20425;-76
2021/01/25 11:44:32;;;;;;;18.17;9.32;;;4.20;99.90;;;;;;4967934;28;20019;-76
2021/01/25 11:46:58;;;;;;;21.67;9.60;;;4.20;99.90;;;;;;4967354;28;20366;-77
2021/01/25 11:49:23;;;;;;;20.40;9.75;;;4.20;99.90;;;;;;4965628;28;20027;-78
2021/01/25 11:51:48;;;;;;;17.23;9.55;;;4.30;99.90;;;;;;4965467;28;20045;-76
2021/01/25 11:54:14;;;;;;;19.20;9.35;;;4.30;99.90;;;;;;4963384;28;20181;-77
2021/01/25 11:56:39;;;;;;;18.75;9.07;;;4.40;99.90;;;;;;4965557;28;20034;-76
2021/01/25 11:59:05;;;;;;;19.83;9.50;;;4.30;99.90;;;;;;4966172;28;20027;-77
2021/01/25 12:01:31;;;;;;;20.85;10.32;;;4.30;99.90;;;;;;4968025;28;20018;-78
2021/01/25 12:03:56;;;;;;;16.60;8.73;;;4.30;99.90;;;;;;4967610;28;20038;-77
2021/01/25 12:06:22;;;;;;;16.50;8.60;;;4.30;99.90;;;;;;4964624;28;20070;-77
2021/01/25 12:08:48;;;;;;;17.88;8.45;;;4.10;99.90;;;;;;4961997;28;20494;-77
2021/01/25 12:11:13;;;;;;;20.90;9.57;;;4.10;99.90;;;;;;4967849;28;20117;-84
2021/01/25 12:13:39;;;;;;;17.23;9.27;;;4.10;99.90;;;;;;4978787;28;20041;-79
2021/01/25 12:16:25;;;;;;;16.88;8.70;;;4.10;99.90;;;;;;4964613;28;20138;-79
2021/01/25 12:18:50;;;;;;;16.83;9.32;;;4.20;99.90;;;;;;4958751;28;20114;-80
2021/01/25 12:21:16;;;;;;;19.20;9.15;;;4.20;99.90;;;;;;4961488;28;20118;-81
2021/01/25 12:23:41;;;;;;;19.75;9.98;;;4.10;99.90;;;;;;4966349;28;20046;-80
2021/01/25 12:26:07;;;;;;;20.73;10.38;;;4.10;99.90;;;;;;4969256;28;20019;-80
2021/01/25 12:28:32;;;;;;;20.40;10.65;;;4.10;99.90;;;;;;4972640;28;20497;-79
2021/01/25 12:31:05;;;;;;;22.75;10.93;;;4.10;99.90;;;;;;4972941;28;20418;-80
2021/01/25 12:33:31;;;;;;;21.23;10.77;;;4.10;99.90;;;;;;4964697;28;20363;-79
2021/01/25 12:35:57;;;;;;;21.02;10.38;;;4.20;99.90;;;;;;4970082;28;20061;-80
2021/01/25 12:38:23;;;;;;;24.42;10.90;;;4.30;99.90;;;;;;4951835;28;20385;-80
2021/01/25 12:40:48;;;;;;;22.05;10.32;;;4.40;99.90;;;;;;4982629;28;20030;-79
2021/01/25 12:43:14;;;;;;;21.30;10.45;;;4.40;99.90;;;;;;4968332;28;20589;-80
2021/01/25 12:45:39;;;;;;;21.35;9.93;;;4.40;99.90;;;;;;4965011;28;20533;-80